Time;durP1;ratioP1;P1;durP2;ratioP2;P2;SDS_P1;SDS_P2;PMS_P1;PMS_P2;Temp;Humidity;BMP_temperature;BMP_pressure;BME280_temperature;BME280_humidity;BME280_pressure;Samples;Min_cycle;Max_cycle;Signal;HPM_P1;HPM_P2
2024/01/17 00:01:54;;;;;;;19.20;9.00;;;;;;;-4.18;100.00;100053.47;5261387;28;20055;-72
2024/01/17 00:04:27;;;;;;;16.87;8.60;;;;;;;-4.21;100.00;100059.28;5261960;28;20067;-72
2024/01/17 00:06:58;;;;;;;16.60;8.43;;;;;;;-4.22;100.00;100052.47;5261950;28;20029;-72
2024/01/17 00:09:30;;;;;;;14.73;8.47;;;;;;;-4.22;100.00;100052.47;5261951;28;20037;-73
2024/01/17 00:12:04;;;;;;;14.10;8.50;;;;;;;-4.26;100.00;100046.41;5261899;28;20092;-73
2024/01/17 00:14:35;;;;;;;19.27;9.05;;;;;;;-4.29;100.00;100035.25;5261888;28;20501;-73
2024/01/17 00:17:07;;;;;;;18.67;9.23;;;;;;;-4.29;100.00;100037.81;5261369;28;20108;-71
2024/01/17 00:19:38;;;;;;;14.90;9.80;;;;;;;-4.31;100.00;100027.56;5261856;28;20033;-71
2024/01/17 00:22:10;;;;;;;16.63;9.27;;;;;;;-4.32;100.00;100020.75;5260305;28;20029;-72
2024/01/17 00:24:41;;;;;;;16.53;8.13;;;;;;;-4.35;100.00;100015.53;5261708;28;20455;-71
2024/01/17 00:27:13;;;;;;;13.77;8.97;;;;;;;-4.35;100.00;100009.59;5260489;28;20029;-72
2024/01/17 00:29:45;;;;;;;12.37;8.33;;;;;;;-4.37;100.00;100011.22;5258246;28;20127;-72
2024/01/17 00:32:16;;;;;;;15.43;8.98;;;;;;;-4.39;100.00;100006.09;5260967;28;20087;-72
2024/01/17 00:34:47;;;;;;;14.70;9.47;;;;;;;-4.40;100.00;99991.63;5261203;28;20033;-72
2024/01/17 00:37:19;;;;;;;14.37;10.07;;;;;;;-4.41;100.00;99997.53;5261705;28;20156;-72
2024/01/17 00:39:51;;;;;;;12.83;8.37;;;;;;;-4.42;100.00;99986.47;5261422;28;20025;-72
2024/01/17 00:42:22;;;;;;;16.57;9.40;;;;;;;-4.47;100.00;99975.28;5243608;28;20051;-72
2024/01/17 00:44:53;;;;;;;17.90;9.60;;;;;;;-4.48;100.00;99967.59;5261619;28;20522;-72
2024/01/17 00:47:25;;;;;;;18.13;8.50;;;;;;;-4.50;100.00;99967.56;5261059;28;20079;-72
2024/01/17 00:49:56;;;;;;;18.80;10.00;;;;;;;-4.52;100.00;99961.56;5261466;28;20055;-72
2024/01/17 00:52:28;;;;;;;15.07;8.87;;;;;;;-4.54;100.00;99962.28;5261483;28;20033;-72
2024/01/17 00:54:59;;;;;;;14.60;10.27;;;;;;;-4.53;100.00;99956.41;5265011;28;20029;-72
2024/01/17 00:57:30;;;;;;;22.53;10.60;;;;;;;-4.55;100.00;99946.19;5265588;28;20124;-72
2024/01/17 01:00:02;;;;;;;12.10;8.43;;;;;;;-4.54;100.00;99937.75;5265577;28;20029;-70
2024/01/17 01:02:33;;;;;;;14.37;9.47;;;;;;;-4.53;100.00;99936.91;5265009;28;20025;-73
2024/01/17 01:05:05;;;;;;;11.40;7.80;;;;;;;-4.52;100.00;99925.94;5265478;28;20021;-72
2024/01/17 01:07:37;;;;;;;15.77;8.67;;;;;;;-4.49;100.00;99923.50;5265405;28;20025;-72
2024/01/17 01:10:08;;;;;;;15.67;8.67;;;;;;;-4.48;100.00;99930.31;5265464;28;20051;-73
2024/01/17 01:12:40;;;;;;;14.80;8.23;;;;;;;-4.50;100.00;99926.00;5264954;28;20033;-72
2024/01/17 01:15:11;;;;;;;14.50;8.83;;;;;;;-4.49;100.00;99926.03;5265269;28;20040;-72
2024/01/17 01:17:42;;;;;;;20.80;9.40;;;;;;;-4.50;100.00;99924.31;5264528;28;20029;-71
2024/01/17 01:20:14;;;;;;;14.80;8.23;;;;;;;-4.49;100.00;99917.53;5265182;28;20033;-71
2024/01/17 01:22:45;;;;;;;12.67;8.07;;;;;;;-4.47;100.00;99919.31;5264982;28;20036;-71
2024/01/17 01:25:17;;;;;;;14.23;7.57;;;;;;;-4.46;100.00;99910.00;5264784;28;20064;-72
2024/01/17 01:27:48;;;;;;;15.17;8.70;;;;;;;-4.49;100.00;99902.25;5265257;28;20392;-71
2024/01/17 01:30:19;;;;;;;15.20;8.00;;;;;;;-4.50;100.00;99891.25;5265189;28;20029;-71
2024/01/17 01:32:51;;;;;;;16.00;8.30;;;;;;;-4.53;100.00;99901.31;5264336;28;20049;-72
2024/01/17 01:35:22;;;;;;;17.43;7.93;;;;;;;-4.49;100.00;99899.72;5264904;28;20048;-71
2024/01/17 01:37:53;;;;;;;16.33;8.63;;;;;;;-4.45;100.00;99904.13;5264647;28;20124;-71
2024/01/17 01:40:25;;;;;;;13.70;7.77;;;;;;;-4.48;100.00;99898.91;5263500;28;20040;-71
2024/01/17 01:42:58;;;;;;;12.83;7.40;;;;;;;-4.49;100.00;99900.59;5264798;28;20032;-70
2024/01/17 01:45:29;;;;;;;12.77;8.55;;;;;;;-4.47;100.00;99903.22;5264497;28;20420;-70
2024/01/17 01:48:01;;;;;;;16.87;8.90;;;;;;;-4.49;100.00;99904.81;5264237;28;20063;-71
2024/01/17 01:50:32;;;;;;;14.83;7.93;;;;;;;-4.51;100.00;99892.03;5264557;28;20029;-71
2024/01/17 01:53:04;;;;;;;13.13;8.20;;;;;;;-4.50;100.00;99898.00;5264559;28;20041;-71
2024/01/17 01:55:35;;;;;;;18.10;9.00;;;;;;;-4.47;100.00;99903.22;5264409;28;20082;-70
2024/01/17 01:58:07;;;;;;;14.43;8.40;;;;;;;-4.50;100.00;99898.88;5262878;28;20098;-71
2024/01/17 02:00:38;;;;;;;14.37;8.10;;;;;;;-4.49;100.00;99884.47;5263977;28;20033;-71
2024/01/17 02:03:10;;;;;;;15.23;8.67;;;;;;;-4.48;100.00;99888.75;5264280;28;20384;-72
2024/01/17 02:05:42;;;;;;;19.50;8.13;;;;;;;-4.51;100.00;99886.94;5263727;28;20412;-70
2024/01/17 02:08:14;;;;;;;14.77;8.55;;;;;;;-4.49;100.00;99885.34;5264208;28;20032;-71
2024/01/17 02:10:46;;;;;;;13.90;7.90;;;;;;;-4.50;100.00;99873.44;5263877;28;20056;-71
2024/01/17 02:13:17;;;;;;;16.77;9.03;;;;;;;-4.51;100.00;99876.78;5264041;28;20380;-71
2024/01/17 02:15:49;;;;;;;10.73;8.27;;;;;;;-4.52;100.00;99877.63;5264030;28;20479;-70
2024/01/17 02:18:20;;;;;;;15.17;8.70;;;;;;;-4.52;100.00;99864.00;5263585;28;20107;-70
2024/01/17 02:20:52;;;;;;;14.87;7.70;;;;;;;-4.53;100.00;99863.16;5263706;28;20025;-71
2024/01/17 02:23:29;;;;;;;11.10;8.13;;;;;;;-4.54;100.00;99860.56;5263889;28;20029;-71
2024/01/17 02:26:01;;;;;;;16.13;8.35;;;;;;;-4.55;100.00;99849.53;5263500;28;20021;-70
2024/01/17 02:28:32;;;;;;;13.60;7.97;;;;;;;-4.53;100.00;99850.44;5263501;28;20443;-70
2024/01/17 02:31:04;;;;;;;14.67;7.83;;;;;;;-4.51;100.00;99846.25;5263477;28;20036;-70
2024/01/17 02:33:36;;;;;;;18.77;10.45;;;;;;;-4.50;100.00;99840.38;5263229;28;20064;-71
2024/01/17 02:36:07;;;;;;;15.03;8.33;;;;;;;-4.52;100.00;99831.84;5263452;28;20461;-71
2024/01/17 02:38:39;;;;;;;13.37;8.10;;;;;;;-4.50;100.00;99822.56;5262317;28;20025;-71
2024/01/17 02:41:10;;;;;;;14.73;8.40;;;;;;;-4.52;100.00;99823.31;5262375;28;20041;-70
2024/01/17 02:43:41;;;;;;;12.47;7.37;;;;;;;-4.51;100.00;99810.66;5262256;28;20384;-71
2024/01/17 02:46:13;;;;;;;15.80;8.67;;;;;;;-4.49;100.00;99808.16;5263442;28;20048;-71
2024/01/17 02:48:44;;;;;;;12.30;8.37;;;;;;;-4.50;100.00;99801.34;5262762;28;20510;-71
2024/01/17 02:51:15;;;;;;;14.30;7.73;;;;;;;-4.50;100.00;99797.13;5263478;28;20025;-71
2024/01/17 02:53:47;;;;;;;13.73;8.47;;;;;;;-4.49;100.00;99797.97;5263358;28;20099;-71
2024/01/17 02:56:19;;;;;;;13.67;8.47;;;;;;;-4.53;100.00;99789.41;5263039;28;20519;-70
2024/01/17 02:58:50;;;;;;;16.43;8.57;;;;;;;-4.56;100.00;99776.56;5263222;28;20487;-70
2024/01/17 03:01:21;;;;;;;13.60;8.67;;;;;;;-4.59;100.00;99771.38;5263292;28;20029;-71
2024/01/17 03:03:53;;;;;;;14.47;8.73;;;;;;;-4.60;100.00;99762.91;5245307;28;20047;-71
2024/01/17 03:06:24;;;;;;;13.40;8.43;;;;;;;-4.66;100.00;99767.78;5261843;28;20344;-71
2024/01/17 03:08:55;;;;;;;13.27;7.87;;;;;;;-4.65;100.00;99753.41;5263074;28;20461;-70
2024/01/17 03:11:27;;;;;;;12.27;7.93;;;;;;;-4.63;100.00;99759.41;5263032;28;20028;-70
2024/01/17 03:13:58;;;;;;;15.00;8.00;;;;;;;-4.72;100.00;99762.50;5262530;28;20047;-70
2024/01/17 03:16:29;;;;;;;13.23;7.70;;;;;;;-4.69;100.00;99766.84;5262076;28;20411;-71
2024/01/17 03:19:01;;;;;;;14.87;8.40;;;;;;;-4.70;100.00;99763.44;5262701;28;20068;-70
2024/01/17 03:21:32;;;;;;;15.73;7.97;;;;;;;-4.68;100.00;99759.25;5262523;28;20098;-71
2024/01/17 03:24:04;;;;;;;10.97;7.97;;;;;;;-4.69;100.00;99764.28;5262793;28;20157;-72
2024/01/17 03:26:35;;;;;;;15.33;8.53;;;;;;;-4.66;100.00;99755.06;5262473;28;20158;-71
2024/01/17 03:29:06;;;;;;;16.50;7.70;;;;;;;-4.68;100.00;99753.31;5262715;28;20029;-71
2024/01/17 03:31:38;;;;;;;13.77;8.33;;;;;;;-4.71;100.00;99741.34;5262366;28;20086;-71
2024/01/17 03:34:09;;;;;;;11.77;7.67;;;;;;;-4.68;100.00;99736.38;5262780;28;20079;-72
2024/01/17 03:36:41;;;;;;;13.73;8.00;;;;;;;-4.69;100.00;99719.38;5261285;28;20036;-71
2024/01/17 03:39:13;;;;;;;13.77;8.43;;;;;;;-4.67;100.00;99711.81;5262406;28;20037;-71
2024/01/17 03:41:44;;;;;;;11.57;7.28;;;;;;;-4.67;100.00;99710.13;5262041;28;20037;-71
2024/01/17 03:44:15;;;;;;;13.10;7.87;;;;;;;-4.67;100.00;99699.97;5262023;28;20426;-71
2024/01/17 03:46:47;;;;;;;15.17;7.13;;;;;;;-4.62;100.00;99695.88;5262426;28;20025;-70
2024/01/17 03:49:18;;;;;;;10.07;6.93;;;;;;;-4.63;100.00;99672.94;5261869;28;20388;-70
2024/01/17 03:51:49;;;;;;;13.73;7.87;;;;;;;-4.60;100.00;99673.03;5260904;28;20033;-71
2024/01/17 03:54:21;;;;;;;16.43;7.93;;;;;;;-4.60;100.00;99663.72;5262014;28;20033;-70
2024/01/17 03:56:52;;;;;;;15.40;8.93;;;;;;;-4.60;100.00;99657.78;5261942;28;20025;-71
2024/01/17 03:59:23;;;;;;;15.23;8.13;;;;;;;-4.57;100.00;99650.25;5260667;28;20047;-71
2024/01/17 04:01:55;;;;;;;13.53;7.23;;;;;;;-4.58;100.00;99646.81;5261857;28;20036;-72
2024/01/17 04:04:27;;;;;;;12.87;7.00;;;;;;;-4.58;100.00;99646.81;5261475;28;20097;-71
2024/01/17 04:06:58;;;;;;;14.63;7.33;;;;;;;-4.55;100.00;99635.03;5261863;28;20393;-72
2024/01/17 04:09:29;;;;;;;11.97;8.20;;;;;;;-4.55;100.00;99635.03;5262006;28;20029;-72
2024/01/17 04:12:01;;;;;;;10.43;6.80;;;;;;;-4.53;100.00;99624.06;5262089;28;20084;-70
2024/01/17 04:14:32;;;;;;;14.00;7.27;;;;;;;-4.53;100.00;99613.91;5260254;28;20025;-72
2024/01/17 04:17:03;;;;;;;10.90;8.03;;;;;;;-4.52;100.00;99608.00;5261542;28;20036;-71
2024/01/17 04:19:35;;;;;;;11.73;7.13;;;;;;;-4.53;100.00;99603.72;5261502;28;20029;-71
2024/01/17 04:22:06;;;;;;;11.37;7.60;;;;;;;-4.51;100.00;99604.63;5260346;28;20478;-70
2024/01/17 04:24:38;;;;;;;17.97;7.07;;;;;;;-4.51;100.00;99586.81;5260448;28;20303;-70
2024/01/17 04:27:09;;;;;;;15.43;7.73;;;;;;;-4.49;100.00;99590.28;5260642;28;20473;-71
2024/01/17 04:29:40;;;;;;;11.80;6.97;;;;;;;-4.52;100.00;99582.56;5261761;28;20028;-70
2024/01/17 04:32:12;;;;;;;15.17;7.40;;;;;;;-4.52;100.00;99576.59;5261112;28;20057;-70
2024/01/17 04:34:43;;;;;;;10.90;7.87;;;;;;;-4.53;100.00;99569.81;5260174;28;20043;-70
2024/01/17 04:37:15;;;;;;;15.40;7.93;;;;;;;-4.52;100.00;99562.22;5261697;28;20075;-70
2024/01/17 04:39:47;;;;;;;12.10;7.80;;;;;;;-4.54;100.00;99551.16;5261350;28;20021;-71
2024/01/17 04:42:18;;;;;;;11.10;7.37;;;;;;;-4.53;100.00;99552.00;5261628;28;20039;-71
2024/01/17 04:44:50;;;;;;;10.33;6.87;;;;;;;-4.56;100.00;99551.91;5261444;28;20024;-70
2024/01/17 04:47:21;;;;;;;14.57;7.57;;;;;;;-4.58;100.00;99545.09;5261580;28;20033;-71
2024/01/17 04:49:52;;;;;;;14.20;7.03;;;;;;;-4.62;100.00;99545.84;5261718;28;20423;-70
2024/01/17 04:52:24;;;;;;;13.53;7.13;;;;;;;-4.58;100.00;99544.25;5261366;28;20052;-70
2024/01/17 04:54:55;;;;;;;12.57;7.33;;;;;;;-4.61;100.00;99527.22;5261605;28;20104;-70
2024/01/17 04:57:27;;;;;;;12.70;7.77;;;;;;;-4.60;100.00;99520.47;5261655;28;20033;-70
2024/01/17 04:59:58;;;;;;;13.60;7.37;;;;;;;-4.63;100.00;99520.38;5261302;28;20052;-71
2024/01/17 05:02:29;;;;;;;11.50;7.33;;;;;;;-4.62;100.00;99504.28;5261426;28;20090;-71
2024/01/17 05:05:01;;;;;;;14.27;7.50;;;;;;;-4.62;100.00;99519.53;5260501;28;20056;-70
2024/01/17 05:07:32;;;;;;;18.73;7.80;;;;;;;-4.65;100.00;99507.63;5260148;28;20041;-71
2024/01/17 05:10:04;;;;;;;12.17;7.43;;;;;;;-4.64;100.00;99504.22;5261505;28;20031;-71
2024/01/17 05:12:35;;;;;;;13.32;8.25;;;;;;;-4.62;100.00;99497.53;5260064;28;20547;-71
2024/01/17 05:15:07;;;;;;;13.77;7.87;;;;;;;-4.67;100.00;99495.66;5261405;28;20107;-71
2024/01/17 05:17:39;;;;;;;13.50;7.68;;;;;;;-4.66;100.00;99495.72;5260975;28;20043;-71
2024/01/17 05:20:14;;;;;;;12.87;7.30;;;;;;;-4.63;100.00;99493.25;5261326;28;20041;-70
2024/01/17 05:22:45;;;;;;;15.60;7.88;;;;;;;-4.61;100.00;99486.50;5260801;28;20372;-71
2024/01/17 05:25:17;;;;;;;11.53;7.90;;;;;;;-4.62;100.00;99486.47;5260987;28;20041;-70
2024/01/17 05:27:52;;;;;;;12.63;7.40;;;;;;;-4.62;100.00;99476.31;5261268;28;20384;-71
2024/01/17 05:30:24;;;;;;;13.10;7.28;;;;;;;-4.60;100.00;99477.22;5261256;28;20033;-71
2024/01/17 05:32:56;;;;;;;12.10;8.00;;;;;;;-4.58;100.00;99467.94;5261209;28;20086;-70
2024/01/17 05:35:28;;;;;;;15.67;8.37;;;;;;;-4.59;100.00;99464.56;5261180;28;20041;-70
2024/01/17 05:38:00;;;;;;;10.80;7.45;;;;;;;-4.61;100.00;99462.78;5259929;28;20021;-71
2024/01/17 05:40:32;;;;;;;13.83;8.80;;;;;;;-4.62;100.00;99456.84;5263310;28;20380;-71
2024/01/17 05:43:03;;;;;;;10.63;7.63;;;;;;;-4.60;100.00;99447.56;5263506;28;20048;-71
2024/01/17 05:45:35;;;;;;;12.77;8.33;;;;;;;-4.63;100.00;99434.75;5264896;28;20121;-71
2024/01/17 05:48:06;;;;;;;13.10;8.93;;;;;;;-4.63;100.00;99437.31;5264413;28;20017;-71
2024/01/17 05:50:37;;;;;;;12.57;7.87;;;;;;;-4.64;100.00;99444.91;5264863;28;20109;-71
2024/01/17 05:53:09;;;;;;;15.43;7.70;;;;;;;-4.60;100.00;99439.09;5264877;28;20483;-71
2024/01/17 05:55:41;;;;;;;11.40;7.97;;;;;;;-4.58;100.00;99433.19;5263588;28;20060;-71
2024/01/17 05:58:12;;;;;;;9.97;7.27;;;;;;;-4.56;100.00;99432.38;5263523;28;20079;-71
2024/01/17 06:00:43;;;;;;;13.40;8.70;;;;;;;-4.52;100.00;99426.53;5264696;28;20033;-71
2024/01/17 06:03:15;;;;;;;14.73;8.83;;;;;;;-4.52;100.00;99422.34;5264679;28;20040;-71
2024/01/17 06:05:46;;;;;;;16.33;9.40;;;;;;;-4.53;100.00;99428.22;5264603;28;20033;-72
2024/01/17 06:08:18;;;;;;;17.07;9.10;;;;;;;-4.51;100.00;99421.50;5262998;28;20098;-71
2024/01/17 06:10:50;;;;;;;19.00;9.65;;;;;;;-4.48;100.00;99410.56;5264658;28;20029;-71
2024/01/17 06:13:21;;;;;;;15.70;8.27;;;;;;;-4.47;100.00;99410.59;5264575;28;20067;-71
2024/01/17 06:15:53;;;;;;;13.23;8.13;;;;;;;-4.47;100.00;99410.59;5263298;28;20108;-71
2024/01/17 06:18:24;;;;;;;12.13;7.53;;;;;;;-4.43;100.00;99411.53;5264028;28;20082;-71
2024/01/17 06:20:55;;;;;;;16.13;8.40;;;;;;;-4.46;100.00;99407.25;5264097;28;20115;-71
2024/01/17 06:23:29;;;;;;;16.43;9.23;;;;;;;-4.46;100.00;99396.19;5264243;28;20033;-71
2024/01/17 06:26:00;;;;;;;13.57;10.00;;;;;;;-4.45;100.00;99390.28;5264257;28;20150;-71
2024/01/17 06:28:34;;;;;;;13.57;9.13;;;;;;;-4.43;100.00;99392.06;5263926;28;20508;-71
2024/01/17 06:31:06;;;;;;;14.38;9.65;;;;;;;-4.42;100.00;99378.50;5264392;28;20461;-71
2024/01/17 06:33:39;;;;;;;15.77;8.67;;;;;;;-4.42;100.00;99378.50;5264144;28;20095;-72
2024/01/17 06:36:10;;;;;;;;;;;;;;;-4.38;100.00;99379.44;5264621;28;20754;-72
2024/01/17 06:38:41;;;;;;;13.68;8.55;;;;;;;-4.43;100.00;99366.63;5263941;28;19931;-71
2024/01/17 06:41:13;;;;;;;17.00;10.63;;;;;;;-4.42;100.00;99362.38;5262757;28;20037;-71
2024/01/17 06:43:45;;;;;;;19.63;9.23;;;;;;;-4.43;100.00;99359.00;5263806;28;20116;-71
2024/01/17 06:46:16;;;;;;;15.33;9.13;;;;;;;-4.37;100.00;99365.03;5263807;28;20573;-72
2024/01/17 06:48:48;;;;;;;12.97;8.87;;;;;;;-4.36;100.00;99356.56;5263435;28;20060;-71
2024/01/17 06:51:19;;;;;;;12.13;8.90;;;;;;;-4.34;100.00;99360.03;5263760;28;20033;-72
2024/01/17 06:53:51;;;;;;;14.87;10.07;;;;;;;-4.31;100.00;99353.34;5262377;28;20040;-71
2024/01/17 06:56:22;;;;;;;17.77;9.20;;;;;;;-4.33;100.00;99349.00;5263665;28;20079;-72
2024/01/17 06:58:54;;;;;;;15.80;8.97;;;;;;;-4.32;100.00;99348.19;5263568;28;20078;-72
2024/01/17 07:01:26;;;;;;;13.77;8.65;;;;;;;-4.29;100.00;99341.50;5263491;28;20037;-71
2024/01/17 07:03:58;;;;;;;15.15;9.20;;;;;;;-4.27;100.00;99337.28;5263448;28;20075;-71
2024/01/17 07:06:29;;;;;;;11.57;8.33;;;;;;;-4.26;100.00;99333.09;5261879;28;20060;-71
2024/01/17 07:09:01;;;;;;;14.73;8.70;;;;;;;-4.24;100.00;99318.72;5263271;28;20025;-71
2024/01/17 07:11:33;;;;;;;15.37;8.80;;;;;;;-4.20;100.00;99317.97;5263124;28;20055;-71
2024/01/17 07:14:04;;;;;;;11.20;8.10;;;;;;;-4.19;100.00;99313.72;5263080;28;20119;-71
2024/01/17 07:16:36;;;;;;;12.67;8.53;;;;;;;-4.20;100.00;99312.88;5263049;28;20044;-71
2024/01/17 07:19:07;;;;;;;16.20;9.20;;;;;;;-4.18;100.00;99297.66;5262535;28;20108;-71
2024/01/17 07:21:40;;;;;;;15.10;8.50;;;;;;;-4.19;100.00;99308.66;5262823;28;20067;-71
2024/01/17 07:24:12;;;;;;;13.75;9.52;;;;;;;-4.22;100.00;99295.03;5262605;28;20494;-71
2024/01/17 07:26:43;;;;;;;13.73;8.93;;;;;;;-4.20;100.00;99295.06;5262784;28;20086;-71
2024/01/17 07:29:15;;;;;;;15.17;9.60;;;;;;;-4.21;100.00;99293.34;5262664;28;20267;-71
2024/01/17 07:31:46;;;;;;;12.83;8.70;;;;;;;-4.19;100.00;99288.28;5262418;28;20029;-72
2024/01/17 07:34:18;;;;;;;15.13;9.07;;;;;;;-4.23;100.00;99275.50;5262483;28;20111;-72
2024/01/17 07:36:51;;;;;;;17.77;9.07;;;;;;;-4.19;100.00;99273.03;5262778;28;20056;-72
2024/01/17 07:39:22;;;;;;;15.13;8.18;;;;;;;-4.18;100.00;99264.56;5262734;28;20047;-72
2024/01/17 07:41:55;;;;;;;12.50;8.30;;;;;;;-4.18;100.00;99259.47;5262941;28;20550;-72
2024/01/17 07:44:29;;;;;;;11.52;8.13;;;;;;;-4.16;100.00;99247.66;5262647;28;20120;-72
2024/01/17 07:47:00;;;;;;;17.35;8.77;;;;;;;-4.15;100.00;99240.03;5262522;28;20029;-72
2024/01/17 07:49:37;;;;;;;14.40;7.90;;;;;;;-4.14;100.00;99236.66;5262199;28;20087;-72
2024/01/17 07:52:08;;;;;;;13.18;7.53;;;;;;;-4.11;100.00;99239.25;5262538;28;20033;-71
2024/01/17 07:54:40;;;;;;;15.70;7.67;;;;;;;-4.05;100.00;99236.84;5262501;28;20056;-72
2024/01/17 07:57:12;;;;;;;15.40;9.00;;;;;;;-4.04;100.00;99230.94;5262431;28;20059;-71
2024/01/17 07:59:43;;;;;;;15.55;8.32;;;;;;;-4.04;100.00;99225.00;5261932;28;20106;-72
2024/01/17 08:02:17;;;;;;;13.00;7.93;;;;;;;-4.04;100.00;99222.47;5260405;28;20064;-72
2024/01/17 08:04:52;;;;;;;11.75;7.82;;;;;;;-3.99;100.00;99219.97;5262136;28;20036;-72
2024/01/17 08:07:24;;;;;;;10.82;7.72;;;;;;;-3.96;100.00;99210.75;5262286;28;20047;-72
2024/01/17 08:09:56;;;;;;;13.18;8.23;;;;;;;-3.93;100.00;99203.19;5260825;28;20059;-72
2024/01/17 08:12:27;;;;;;;14.37;9.47;;;;;;;-3.85;100.00;99198.22;5262159;28;20037;-72
2024/01/17 08:14:59;;;;;;;12.17;7.30;;;;;;;-3.78;100.00;99205.16;5261843;28;20087;-72
2024/01/17 08:17:31;;;;;;;12.63;8.00;;;;;;;-3.75;100.00;99204.34;5261582;28;20040;-72
2024/01/17 08:20:04;;;;;;;15.63;8.27;;;;;;;-3.67;100.00;99206.22;5261982;28;20029;-72
2024/01/17 08:22:35;;;;;;;12.85;8.40;;;;;;;-3.63;100.00;99196.09;5260924;28;20087;-72
2024/01/17 08:25:07;;;;;;;13.87;8.53;;;;;;;-3.55;100.00;99195.41;5261944;28;20419;-72
2024/01/17 08:27:39;;;;;;;12.80;8.70;;;;;;;-3.51;100.00;99191.22;5260613;28;20029;-72
2024/01/17 08:30:10;;;;;;;14.67;9.07;;;;;;;-3.46;100.00;99189.63;5261635;28;20143;-72
2024/01/17 08:32:42;;;;;;;13.90;8.33;;;;;;;-3.40;100.00;99183.75;5261862;28;20044;-72
2024/01/17 08:35:14;;;;;;;18.10;8.73;;;;;;;-3.39;100.00;99176.16;5261628;28;20057;-72
2024/01/17 08:37:45;;;;;;;15.82;8.60;;;;;;;-3.36;100.00;99180.44;5261984;28;20037;-72
2024/01/17 08:40:17;;;;;;;12.97;8.83;;;;;;;-3.31;100.00;99177.13;5261794;28;20044;-73
2024/01/17 08:42:48;;;;;;;16.63;8.83;;;;;;;-3.26;100.00;99158.53;5260389;28;20025;-72
2024/01/17 08:45:19;;;;;;;15.07;8.40;;;;;;;-3.18;100.00;99155.25;5261715;28;20472;-73
2024/01/17 08:47:51;;;;;;;17.40;9.00;;;;;;;-3.10;100.00;99163.03;5261296;28;20075;-72
2024/01/17 08:50:22;;;;;;;13.07;8.47;;;;;;;-3.05;100.00;99153.78;5261714;28;20029;-73
2024/01/17 08:52:54;;;;;;;16.00;8.63;;;;;;;-3.02;100.00;99138.53;5261772;28;20472;-73
2024/01/17 08:55:25;;;;;;;11.53;8.57;;;;;;;-2.98;100.00;99132.66;5261778;28;20150;-73
2024/01/17 08:57:56;;;;;;;14.30;8.50;;;;;;;-2.95;100.00;99139.47;5261719;28;20464;-73
2024/01/17 09:00:27;;;;;;;15.53;10.67;;;;;;;-2.91;100.00;99135.28;5261740;28;20063;-72
2024/01/17 09:02:59;;;;;;;10.67;7.83;;;;;;;-2.87;100.00;99130.25;5261476;28;20032;-72
2024/01/17 09:05:31;;;;;;;11.67;8.13;;;;;;;-2.88;100.00;99125.13;5261655;28;20188;-72
2024/01/17 09:08:03;;;;;;;15.53;8.07;;;;;;;-2.86;100.00;99120.91;5261350;28;20029;-72
2024/01/17 09:10:35;;;;;;;13.25;8.68;;;;;;;-2.80;100.00;99119.31;5261734;28;20495;-73
2024/01/17 09:13:06;;;;;;;13.67;8.30;;;;;;;-2.78;100.00;99116.78;5261680;28;20108;-72
2024/01/17 09:15:38;;;;;;;16.00;9.77;;;;;;;-2.72;100.00;99113.44;5264134;28;20515;-71
2024/01/17 09:18:09;;;;;;;14.90;8.90;;;;;;;-2.70;100.00;99110.09;5264935;28;20124;-72
2024/01/17 09:20:40;;;;;;;9.77;7.80;;;;;;;-2.64;100.00;99111.84;5265514;28;20037;-73
2024/01/17 09:23:13;;;;;;;14.67;9.00;;;;;;;-2.62;100.00;99107.66;5265590;28;20063;-72
2024/01/17 09:25:44;;;;;;;15.55;9.07;;;;;;;-2.65;99.67;99105.91;5264336;28;20496;-72
2024/01/17 09:28:16;;;;;;;16.83;9.13;;;;;;;-2.71;98.80;99103.25;5264049;28;20037;-72
2024/01/17 09:30:47;;;;;;;14.13;9.17;;;;;;;-2.67;99.18;99093.94;5265498;28;20033;-72
2024/01/17 09:33:18;;;;;;;13.43;9.20;;;;;;;-2.68;98.81;99099.91;5263559;28;20053;-72
2024/01/17 09:35:50;;;;;;;13.90;8.83;;;;;;;-2.62;98.87;99092.34;5265782;28;20108;-72
2024/01/17 09:38:22;;;;;;;12.53;7.83;;;;;;;-2.61;98.53;99091.50;5265441;28;20112;-72
2024/01/17 09:40:53;;;;;;;12.17;8.80;;;;;;;-2.64;97.80;99092.31;5265712;28;20033;-71
2024/01/17 09:43:25;;;;;;;14.33;9.13;;;;;;;-2.58;98.06;99094.97;5265374;28;20032;-71
2024/01/17 09:46:00;;;;;;;15.40;9.30;;;;;;;-2.50;98.57;99092.47;5265524;28;20066;-71
2024/01/17 09:48:31;;;;;;;18.00;8.75;;;;;;;-2.44;98.29;99094.25;5265541;28;20029;-71
2024/01/17 09:51:04;;;;;;;11.63;8.40;;;;;;;-2.35;98.00;99088.41;5267378;28;20036;-72
2024/01/17 09:53:35;;;;;;;;;;;;;;;-2.18;99.36;99084.34;5269990;28;20072;-71
2024/01/17 09:56:07;;;;;;;12.88;8.90;;;;;;;-2.24;97.72;99077.50;5266610;28;19959;-72
2024/01/17 09:58:42;;;;;;;12.33;8.73;;;;;;;-2.21;96.00;99069.00;5265829;28;20025;-72
2024/01/17 10:01:16;;;;;;;11.60;9.13;;;;;;;-2.20;95.61;99071.56;5265073;28;20124;-72
2024/01/17 10:03:51;;;;;;;17.70;8.75;;;;;;;-2.15;95.21;99063.97;5264577;28;20111;-72
2024/01/17 10:06:23;;;;;;;13.30;8.48;;;;;;;-2.06;94.56;99066.63;5264948;28;20033;-72
2024/01/17 10:08:56;;;;;;;12.60;8.52;;;;;;;-2.06;93.31;99068.31;5264541;28;20180;-72
2024/01/17 10:11:27;;;;;;;12.95;9.18;;;;;;;-1.97;93.76;99063.31;5264230;28;20039;-72
2024/01/17 10:13:58;;;;;;;16.33;9.90;;;;;;;-1.98;93.83;99059.06;5279720;28;20489;-72
2024/01/17 10:16:31;;;;;;;14.63;9.03;;;;;;;-1.79;94.23;99057.50;5264248;28;20040;-72
2024/01/17 10:19:04;;;;;;;13.75;9.57;;;;;;;-1.76;93.66;99061.81;5262689;28;20033;-72
2024/01/17 10:21:35;;;;;;;18.85;10.57;;;;;;;-1.77;93.14;99060.06;5264567;28;20037;-73
2024/01/17 10:24:08;;;;;;;18.67;10.47;;;;;;;-1.70;93.66;99060.16;5263434;28;20091;-72
2024/01/17 10:26:51;;;;;;;15.15;10.07;;;;;;;-1.66;93.38;99048.25;5262647;28;20082;-72
2024/01/17 10:29:22;;;;;;;16.90;10.43;;;;;;;-1.66;93.48;99049.13;5264450;28;20029;-72
2024/01/17 10:31:59;;;;;;;16.60;11.57;;;;;;;-1.57;93.59;99043.22;5245645;28;20098;-71
2024/01/17 10:34:30;;;;;;;18.70;11.35;;;;;;;-1.53;92.50;99044.09;5263888;28;20112;-72
2024/01/17 10:37:03;;;;;;;16.10;11.73;;;;;;;-1.57;91.72;99038.13;5263784;28;20116;-72
2024/01/17 10:39:35;;;;;;;14.32;10.27;;;;;;;-1.58;91.07;99035.53;5263448;28;20043;-72
2024/01/17 10:42:17;;;;;;;14.57;10.50;;;;;;;-1.51;92.18;99027.09;5263756;28;20029;-72
2024/01/17 10:44:49;;;;;;;16.92;11.52;;;;;;;-1.59;91.61;99019.38;5263736;28;20059;-72
2024/01/17 10:47:20;;;;;;;14.27;10.57;;;;;;;-1.59;92.22;99023.63;5263322;28;20061;-71
2024/01/17 10:49:52;;;;;;;14.47;10.40;;;;;;;-1.66;92.01;99022.72;5263413;28;20064;-72
2024/01/17 10:52:25;;;;;;;14.53;10.43;;;;;;;-1.73;91.29;99015.84;5263551;28;20345;-72
2024/01/17 10:55:04;;;;;;;16.23;11.52;;;;;;;-1.76;92.42;99001.34;5263290;28;20064;-71
2024/01/17 10:57:44;;;;;;;24.33;11.25;;;;;;;-1.76;92.81;99001.34;5263426;28;20112;-71
2024/01/17 11:00:17;;;;;;;18.08;11.15;;;;;;;-1.66;92.26;99004.81;5263450;28;20111;-71
2024/01/17 11:02:49;;;;;;;17.50;10.27;;;;;;;-1.73;91.28;99005.63;5263266;28;20028;-71
2024/01/17 11:05:25;;;;;;;15.32;10.98;;;;;;;-1.69;91.38;98995.44;5263389;28;20041;-72
2024/01/17 11:07:59;;;;;;;16.58;10.73;;;;;;;-1.60;91.93;98994.66;5263100;28;20056;-72
2024/01/17 11:10:32;;;;;;;15.43;11.30;;;;;;;-1.50;92.15;98985.34;5262923;28;20090;-72
2024/01/17 11:13:04;;;;;;;14.68;10.88;;;;;;;-1.55;90.48;98981.91;5261585;28;20464;-70
2024/01/17 11:15:38;;;;;;;16.80;10.48;;;;;;;-1.51;90.67;98981.09;5262847;28;20170;-70
2024/01/17 11:18:10;;;;;;;18.33;10.50;;;;;;;-1.46;89.92;98976.88;5262299;28;20063;-71
2024/01/17 11:20:43;;;;;;;16.87;10.07;;;;;;;-1.37;89.94;98979.50;5262270;28;20037;-70
2024/01/17 11:23:27;;;;;;;16.67;10.98;;;;;;;-1.29;91.02;98980.41;5262349;28;20033;-70
2024/01/17 11:26:35;;;;;;;18.55;11.00;;;;;;;-1.21;90.08;98970.19;5262736;28;20502;-71
2024/01/17 11:29:18;;;;;;;16.73;10.75;;;;;;;-1.31;88.90;98964.16;5240521;28;20136;-72
2024/01/17 11:31:59;;;;;;;14.77;9.07;;;;;;;-1.39;88.64;98954.75;5262176;28;20025;-70
2024/01/17 11:34:30;;;;;;;13.18;9.45;;;;;;;-1.36;88.59;98950.50;5262520;28;20041;-71
2024/01/17 11:37:02;;;;;;;16.00;10.47;;;;;;;-1.35;87.86;98948.84;5260394;28;20037;-71
2024/01/17 11:39:33;;;;;;;17.17;10.80;;;;;;;-1.31;88.23;98945.44;5262344;28;20059;-71